Time;durP1;ratioP1;P1;durP2;ratioP2;P2;SDS_P1;SDS_P2;PMS_P1;PMS_P2;Temp;Humidity;BMP_temperature;BMP_pressure;BME280_temperature;BME280_humidity;BME280_pressure;Samples;Min_cycle;Max_cycle;Signal;HPM_P1;HPM_P2
2022/05/17 00:01:32;;;;;;;6.28;2.70;;;6.10;1.00;;;6.41;81.94;99176.06;5078958;27;120135;-73
2022/05/17 00:04:02;;;;;;;5.82;2.90;;;6.00;1.00;;;6.33;81.75;99174.03;5077610;27;130186;-73
2022/05/17 00:06:30;;;;;;;6.97;2.83;;;5.90;1.00;;;6.25;81.91;99166.63;5078178;27;129749;-72
2022/05/17 00:08:59;;;;;;;6.13;3.00;;;5.80;1.00;;;6.20;82.23;99170.19;5077677;27;120028;-73
2022/05/17 00:11:29;;;;;;;7.70;3.30;;;5.70;1.00;;;6.13;81.90;99166.22;5078782;27;119548;-73
2022/05/17 00:13:57;;;;;;;5.95;2.80;;;5.70;1.00;;;6.14;82.23;99167.81;5059863;27;129816;-73
2022/05/17 00:16:26;;;;;;;6.70;2.90;;;5.60;1.00;;;6.10;82.64;99173.78;5078343;27;129759;-74
2022/05/17 00:18:55;;;;;;;5.28;2.80;;;5.60;1.00;;;6.09;82.47;99166.00;5078878;27;119926;-74
2022/05/17 00:21:26;;;;;;;7.57;3.67;;;5.60;1.00;;;6.07;82.33;99168.19;5060937;27;119582;-73
2022/05/17 00:23:55;;;;;;;7.53;2.88;;;5.60;1.00;;;6.04;82.26;99164.16;5078129;27;130182;-73
2022/05/17 00:26:25;;;;;;;7.25;2.63;;;5.70;1.00;;;6.05;82.34;99171.16;5076771;27;130696;-74
2022/05/17 00:28:54;;;;;;;5.75;2.85;;;5.70;1.00;;;6.06;82.10;99169.25;5077089;27;122567;-73
2022/05/17 00:31:22;;;;;;;7.50;2.90;;;5.70;1.00;;;6.03;82.12;99172.53;5078500;27;121870;-74
2022/05/17 00:33:50;;;;;;;4.95;3.03;;;5.70;1.00;;;6.00;82.22;99170.41;5077959;27;130010;-74
2022/05/17 00:36:19;;;;;;;5.07;2.65;;;5.60;1.00;;;5.96;82.34;99175.56;5080523;27;129620;-75
2022/05/17 00:38:49;;;;;;;6.78;2.97;;;5.50;1.00;;;5.92;82.17;99172.66;5063380;27;118992;-74
2022/05/17 00:41:19;;;;;;;8.55;2.60;;;5.40;1.00;;;5.84;81.93;99161.69;5078532;27;119593;-75
2022/05/17 00:46:47;;;;;;;6.17;2.47;;;5.60;1.00;;;5.72;81.92;99160.22;5078461;27;130282;-74
2022/05/17 00:49:23;;;;;;;4.82;2.35;;;5.60;1.00;;;5.71;81.90;99155.94;5078466;27;121437;-73
2022/05/17 00:51:56;;;;;;;5.88;2.45;;;5.50;1.00;;;5.73;81.82;99148.38;5063091;27;119133;-73
2022/05/17 00:54:28;;;;;;;5.20;2.60;;;5.40;1.00;;;5.74;81.90;99160.72;5076535;27;131114;-73
2022/05/17 00:57:03;;;;;;;4.57;2.20;;;5.40;1.00;;;5.72;81.52;99156.75;5077642;27;129434;-72
2022/05/17 00:59:32;;;;;;;10.40;2.30;;;5.30;1.00;;;5.67;81.53;99151.41;5062907;27;118733;-74
2022/05/17 01:02:00;;;;;;;4.85;1.92;;;5.30;1.00;;;5.52;80.33;99160.47;5078454;27;119872;-74
2022/05/17 01:04:29;;;;;;;4.43;1.88;;;5.40;1.00;;;5.54;79.93;99171.75;5062495;27;130042;-73
2022/05/17 01:07:02;;;;;;;3.67;2.05;;;5.50;1.00;;;5.55;79.90;99167.97;5077580;27;130151;-73
2022/05/17 01:09:33;;;;;;;5.63;2.00;;;5.40;1.00;;;5.50;79.54;99162.63;5062723;27;120478;-73
2022/05/17 01:12:02;;;;;;;5.25;2.05;;;5.50;1.00;;;5.49;78.90;99163.72;5078470;27;119365;-75
2022/05/17 01:17:16;;;;;;;6.13;2.30;;;5.50;1.00;;;5.51;77.94;99170.41;5062352;27;128679;-74
2022/05/17 01:19:45;;;;;;;4.65;1.70;;;5.40;1.00;;;5.56;77.53;99169.56;5077949;27;122357;-73
2022/05/17 01:22:17;;;;;;;4.05;1.73;;;5.50;1.00;;;5.59;77.12;99174.38;5065972;27;121543;-74
2022/05/17 01:24:45;;;;;;;2.92;1.55;;;5.50;1.00;;;5.59;76.49;99174.38;5081269;27;129588;-75
2022/05/17 01:27:24;;;;;;;4.13;1.67;;;5.50;1.00;;;5.54;76.41;99174.44;5062491;27;129923;-76
2022/05/17 01:29:54;;;;;;;5.43;2.35;;;5.50;1.00;;;5.55;76.13;99178.75;5066156;27;119256;-73
2022/05/17 01:32:24;;;;;;;4.80;1.55;;;5.40;1.00;;;5.50;75.92;99173.38;5081549;27;119551;-74
2022/05/17 01:34:53;;;;;;;5.68;1.67;;;5.40;1.00;;;5.49;75.55;99172.59;5081127;27;131613;-73
2022/05/17 01:37:23;;;;;;;5.80;1.75;;;5.40;1.00;;;5.47;75.69;99165.88;5081240;27;129980;-74
2022/05/17 01:39:51;;;;;;;4.10;1.60;;;5.30;1.00;;;5.44;75.63;99161.91;5065932;27;118129;-73
2022/05/17 01:42:20;;;;;;;3.28;1.35;;;5.30;1.00;;;5.39;75.69;99164.63;5081235;27;120470;-74
2022/05/17 01:44:48;;;;;;;6.80;1.60;;;5.20;1.00;;;5.38;75.59;99158.44;5079704;27;129725;-72
2022/05/17 01:47:17;;;;;;;4.57;1.58;;;5.10;1.00;;;5.36;75.72;99163.31;5080516;27;130313;-73
2022/05/17 01:49:46;;;;;;;3.17;1.35;;;5.10;1.00;;;5.15;75.92;99159.22;5081150;27;120295;-76
2022/05/17 01:52:15;;;;;;;4.78;1.40;;;5.20;1.00;;;5.05;75.89;99157.44;5065696;27;118262;-75
2022/05/17 01:54:44;;;;;;;4.95;1.50;;;5.10;1.00;;;4.99;76.07;99153.97;5080787;27;130123;-74
2022/05/17 01:57:14;;;;;;;4.78;1.55;;;5.00;1.00;;;4.98;76.25;99157.75;5080731;27;130354;-74
2022/05/17 01:59:42;;;;;;;4.35;1.60;;;5.00;1.00;;;4.82;76.94;99161.66;5062357;27;119691;-77
2022/05/17 02:02:10;;;;;;;6.47;1.25;;;5.00;1.00;;;4.78;76.82;99155.22;5066231;27;119732;-74
2022/05/17 02:04:39;;;;;;;3.70;1.30;;;4.90;1.00;;;4.75;76.27;99155.78;5080548;27;130868;-76
2022/05/17 02:07:07;;;;;;;3.55;1.38;;;4.90;1.00;;;4.75;76.47;99161.16;5080694;27;129835;-74
2022/05/17 02:09:36;;;;;;;4.03;1.58;;;4.90;1.00;;;4.81;75.97;99160.03;5079623;27;122077;-76
2022/05/17 02:12:09;;;;;;;3.85;1.50;;;4.90;1.00;;;4.72;75.74;99159.03;5080418;27;122071;-77
2022/05/17 02:14:37;;;;;;;6.57;1.60;;;4.80;1.00;;;4.65;75.64;99165.53;5080405;27;130113;-75
2022/05/17 02:17:06;;;;;;;4.78;1.25;;;4.80;1.00;;;4.60;76.00;99165.59;5080082;27;129829;-71
2022/05/17 02:19:35;;;;;;;5.18;1.63;;;4.80;1.00;;;4.65;75.89;99170.91;5082456;27;119436;-74
2022/05/17 02:22:04;;;;;;;3.35;1.40;;;4.80;1.00;;;4.79;75.70;99172.97;5080583;27;119520;-74
2022/05/17 02:24:33;;;;;;;5.63;1.60;;;4.80;1.00;;;4.90;74.96;99174.50;5080006;27;129655;-73
2022/05/17 02:27:01;;;;;;;3.90;1.40;;;4.70;1.00;;;4.91;75.08;99170.72;5080582;27;129829;-75
2022/05/17 02:29:32;;;;;;;3.53;1.45;;;4.70;1.00;;;4.90;74.96;99169.13;5080294;27;119566;-75
2022/05/17 02:32:01;;;;;;;2.60;1.45;;;4.60;1.00;;;4.88;75.08;99175.84;5079153;27;119475;-72
2022/05/17 02:34:31;;;;;;;4.18;1.65;;;4.60;1.00;;;4.93;74.94;99179.31;5078223;27;130939;-75
2022/05/17 02:37:00;;;;;;;4.95;1.55;;;4.60;1.00;;;4.82;74.98;99175.09;5079891;27;130168;-75
2022/05/17 02:39:28;;;;;;;1.73;1.13;;;4.70;1.00;;;4.84;74.82;99164.88;5080237;27;120226;-74
2022/05/17 02:41:57;;;;;;;5.65;1.50;;;4.70;1.00;;;4.90;75.29;99174.50;5080194;27;119441;-74
2022/05/17 02:44:26;;;;;;;4.05;1.45;;;4.70;1.00;;;4.97;74.98;99169.59;5079531;27;130092;-74
2022/05/17 02:46:57;;;;;;;4.28;1.40;;;4.70;1.00;;;5.04;74.77;99175.44;5079689;27;130371;-73
2022/05/17 02:49:25;;;;;;;2.60;1.30;;;4.80;1.00;;;5.11;74.87;99169.75;5080109;27;120378;-72
2022/05/17 02:51:54;;;;;;;4.15;1.40;;;4.80;1.00;;;5.24;74.67;99170.19;5080423;27;119837;-73
2022/05/17 02:54:23;;;;;;;4.13;1.33;;;4.90;1.00;;;5.31;74.01;99181.41;5064352;27;128632;-76
2022/05/17 02:56:51;;;;;;;3.53;1.38;;;4.90;1.00;;;5.33;74.15;99177.34;5079580;27;129766;-74
2022/05/17 02:59:20;;;;;;;4.88;1.70;;;4.90;1.00;;;5.37;73.98;99172.97;5078584;27;122183;-73
2022/05/17 03:01:49;;;;;;;3.90;1.70;;;4.90;1.00;;;5.50;74.51;99165.31;5079706;27;122354;-74
2022/05/17 03:04:19;;;;;;;3.25;1.30;;;5.00;1.00;;;6.67;71.73;99170.31;5079487;27;130698;-73
2022/05/17 03:06:49;;;;;;;4.82;1.20;;;5.50;1.00;;;7.86;68.17;99167.09;5079446;27;130324;-73
2022/05/17 03:09:19;;;;;;;4.68;1.48;;;6.20;1.00;;;8.74;63.35;99167.94;5079063;27;119767;-73
2022/05/17 03:11:47;;;;;;;3.72;0.95;;;6.30;1.00;;;9.91;60.24;99174.13;5079590;27;119793;-73
2022/05/17 03:14:18;;;;;;;2.88;1.00;;;6.60;1.00;;;10.87;56.20;99176.13;5079494;27;130398;-74
2022/05/17 03:16:47;;;;;;;4.57;1.10;;;7.10;1.00;;;10.58;55.04;99164.00;5065688;27;129443;-75
2022/05/17 03:19:17;;;;;;;4.65;1.00;;;6.80;1.00;;;9.69;57.08;99156.81;5064919;27;118645;-74
2022/05/17 03:21:49;;;;;;;3.50;0.98;;;6.30;1.00;;;8.15;62.47;99167.88;5065313;27;117261;-74
2022/05/17 03:24:17;;;;;;;5.55;1.42;;;5.80;1.00;;;8.24;62.64;99169.56;5078514;27;129872;-75
2022/05/17 03:26:46;;;;;;;3.53;1.85;;;5.70;1.00;;;7.97;63.60;99166.91;5080055;27;129549;-77
2022/05/17 03:29:14;;;;;;;5.38;1.25;;;5.70;1.00;;;7.50;66.04;99165.09;5081153;27;120927;-75
2022/05/17 03:31:42;;;;;;;2.63;1.42;;;5.70;1.00;;;7.22;67.46;99160.78;5080939;27;119560;-76
2022/05/17 03:34:11;;;;;;;3.55;1.60;;;5.50;1.00;;;7.05;67.95;99167.53;5080578;27;130209;-77
2022/05/17 03:36:40;;;;;;;4.25;1.67;;;5.50;1.00;;;7.08;68.33;99169.63;5082988;27;130346;-76
2022/05/17 03:39:10;;;;;;;2.65;1.23;;;5.50;1.00;;;7.05;68.87;99170.22;5065704;27;119055;-77
2022/05/17 03:41:39;;;;;;;3.25;1.20;;;5.50;1.00;;;7.04;69.17;99171.31;5080891;27;119796;-77
2022/05/17 03:44:07;;;;;;;3.08;1.40;;;5.50;1.00;;;6.48;71.19;99173.81;5080241;27;131001;-75
2022/05/17 03:46:37;;;;;;;6.22;1.30;;;5.50;1.00;;;6.00;73.75;99173.94;5080055;27;129785;-76
2022/05/17 03:49:06;;;;;;;4.60;1.42;;;5.50;1.00;;;6.11;73.58;99174.59;5063723;27;121671;-79
2022/05/17 03:51:34;;;;;;;4.88;1.15;;;5.50;1.00;;;5.76;74.69;99174.72;5080121;27;121998;-76
2022/05/17 03:54:03;;;;;;;5.20;1.40;;;5.40;1.00;;;6.22;73.83;99178.75;5064477;27;130410;-77
2022/05/17 03:56:33;;;;;;;3.63;1.30;;;5.50;1.00;;;6.50;72.04;99175.41;5047508;27;129265;-78
2022/05/17 03:59:01;;;;;;;3.25;1.25;;;5.60;1.00;;;6.24;73.47;99181.97;5064972;27;119360;-75
2022/05/17 04:01:31;;;;;;;3.97;1.15;;;5.60;1.00;;;6.10;74.55;99184.56;5080009;27;119896;-75
2022/05/17 04:03:59;;;;;;;2.80;1.50;;;5.60;1.00;;;6.38;73.31;99182.03;5075251;27;130336;-76
2022/05/17 04:06:28;;;;;;;4.15;1.35;;;5.70;1.00;;;6.53;72.55;99181.03;5048637;27;128965;-77
2022/05/17 04:08:57;;;;;;;3.78;1.50;;;5.80;1.00;;;6.73;72.38;99179.94;5080497;27;120465;-75
2022/05/17 04:11:25;;;;;;;5.22;1.55;;;5.90;1.00;;;6.87;72.07;99184.56;5078908;27;119920;-76
2022/05/17 04:13:55;;;;;;;6.47;1.30;;;5.90;1.00;;;6.99;71.15;99179.50;5078197;27;129973;-78
2022/05/17 04:16:24;;;;;;;4.70;1.30;;;5.90;1.00;;;6.82;71.91;99175.47;5080124;27;130922;-77
2022/05/17 04:18:53;;;;;;;4.80;1.50;;;5.90;1.00;;;6.72;73.26;99177.53;5061382;27;119915;-77
2022/05/17 04:21:21;;;;;;;6.47;1.70;;;6.00;1.00;;;6.62;73.59;99173.06;5078529;27;120467;-77
2022/05/17 04:23:50;;;;;;;3.70;1.83;;;6.00;1.00;;;6.41;75.06;99180.66;5063420;27;128945;-75
2022/05/17 04:26:18;;;;;;;5.22;2.08;;;5.90;1.00;;;6.86;73.48;99175.66;5064371;27;128770;-75
2022/05/17 04:28:47;;;;;;;3.65;1.60;;;6.10;1.00;;;7.10;72.77;99186.31;5066842;27;118691;-74
2022/05/17 04:31:18;;;;;;;6.40;2.72;;;6.20;1.00;;;7.29;72.56;99175.50;5075454;27;120025;-76
2022/05/17 04:33:48;;;;;;;8.50;3.75;;;6.30;1.00;;;7.20;72.09;99183.47;5039271;27;130689;-77
2022/05/17 04:36:16;;;;;;;4.82;2.42;;;6.10;1.00;;;7.25;73.08;99174.47;5043446;27;129285;-75
2022/05/17 04:38:45;;;;;;;4.07;1.45;;;6.20;1.00;;;7.43;72.38;99169.31;5042212;27;121992;-75
2022/05/17 04:41:13;;;;;;;5.60;2.15;;;6.40;1.00;;;7.53;71.66;99169.91;5050246;27;121713;-77
2022/05/17 04:43:42;;;;;;;4.03;1.55;;;6.30;1.00;;;7.38;71.35;99172.88;5059099;27;130101;-76
2022/05/17 04:46:11;;;;;;;4.13;1.48;;;6.20;1.00;;;7.19;72.30;99168.34;5061102;27;129809;-77
2022/05/17 04:48:41;;;;;;;6.13;1.40;;;6.10;1.00;;;7.43;71.47;99170.09;5072081;27;119974;-77
2022/05/17 04:51:11;;;;;;;3.92;1.52;;;6.40;1.00;;;7.54;70.54;99155.31;5079297;27;120031;-76
2022/05/17 04:53:42;;;;;;;4.05;1.38;;;6.40;1.00;;;7.81;70.23;99169.91;5078240;27;130677;-76
2022/05/17 04:56:12;;;;;;;3.63;1.60;;;6.50;1.00;;;6.88;73.56;99157.28;5066332;27;128371;-75
2022/05/17 04:58:43;;;;;;;31.45;11.52;;;6.30;1.00;;;7.02;73.90;99155.41;5068172;27;119411;-77
2022/05/17 05:01:11;;;;;;;9.23;2.90;;;6.40;1.00;;;7.11;73.06;99150.16;5083447;27;119833;-74
2022/05/17 05:03:41;;;;;;;12.63;4.97;;;6.40;1.00;;;6.97;73.97;99157.44;5080266;27;131598;-77
2022/05/17 05:06:09;;;;;;;10.60;3.60;;;6.40;1.00;;;7.15;74.33;99161.16;5068513;27;128901;-75
2022/05/17 05:08:38;;;;;;;4.65;2.00;;;6.60;1.00;;;7.75;72.28;99165.72;5083946;27;120329;-76
2022/05/17 05:11:06;;;;;;;7.82;1.85;;;6.90;1.00;;;7.84;71.60;99169.31;5083788;27;119161;-80
2022/05/17 05:13:34;;;;;;;4.60;2.10;;;7.00;1.00;;;8.31;69.97;99162.94;5083225;27;130066;-76
2022/05/17 05:16:03;;;;;;;4.45;1.48;;;7.10;1.00;;;8.36;68.26;99162.81;5051253;27;128386;-80
2022/05/17 05:18:32;;;;;;;5.50;1.80;;;6.60;1.00;;;8.55;68.41;99158.06;5065531;27;120157;-74
2022/05/17 05:21:09;;;;;;;4.45;1.38;;;7.00;1.00;;;8.47;67.14;99158.81;5062604;27;119546;-77
2022/05/17 05:23:38;;;;;;;6.72;1.75;;;6.90;1.00;;;8.38;67.67;99147.09;5062446;27;129971;-76
2022/05/17 05:26:08;;;;;;;7.07;1.60;;;6.70;1.00;;;8.57;67.65;99142.34;5062325;27;129762;-75
2022/05/17 05:28:37;;;;;;;7.07;1.60;;;6.90;1.00;;;8.51;67.57;99154.41;5046408;27;121324;-76
2022/05/17 05:31:06;;;;;;;3.83;1.42;;;6.80;1.00;;;8.35;68.11;99150.41;5047390;27;121253;-76
2022/05/17 05:33:35;;;;;;;7.43;1.50;;;6.60;1.00;;;8.13;69.12;99149.25;5046992;27;128454;-78
2022/05/17 05:36:05;;;;;;;6.00;1.92;;;6.40;1.00;;;7.77;69.62;99151.91;5064176;27;128700;-77
2022/05/17 05:38:34;;;;;;;3.75;1.38;;;6.30;1.00;;;7.52;71.07;99157.50;5060544;27;120326;-78
2022/05/17 05:41:02;;;;;;;3.10;1.30;;;6.30;1.00;;;7.62;70.96;99155.69;5062017;27;119402;-76
2022/05/17 05:43:31;;;;;;;4.80;1.30;;;6.40;1.00;;;7.73;70.55;99157.13;5063505;27;130049;-74
2022/05/17 05:46:00;;;;;;;4.57;1.40;;;6.60;1.00;;;7.54;71.00;99149.91;5046846;27;129136;-76
2022/05/17 05:48:28;;;;;;;3.33;1.25;;;6.30;1.00;;;7.64;70.74;99154.31;5060641;27;120435;-76
2022/05/17 05:50:56;;;;;;;4.10;1.20;;;6.40;1.00;;;7.69;70.30;99146.09;5043484;27;119848;-73
2022/05/17 05:53:26;;;;;;;3.55;1.50;;;6.60;1.00;;;7.53;70.75;99137.50;5060569;27;130799;-79
2022/05/17 05:56:01;;;;;;;4.95;1.75;;;6.80;1.00;;;7.56;71.23;99142.31;5061013;27;129880;-79
2022/05/17 05:58:30;;;;;;;7.60;1.42;;;6.90;1.00;;;7.64;71.19;99142.72;5062455;27;120517;-79
2022/05/17 06:00:59;;;;;;;4.63;1.48;;;7.00;1.00;;;8.14;70.53;99139.25;5046368;27;119842;-75
2022/05/17 06:03:29;;;;;;;3.55;1.63;;;7.40;1.00;;;8.33;69.33;99144.50;5064007;27;129906;-78
2022/05/17 06:05:57;;;;;;;5.18;1.30;;;7.60;1.00;;;8.85;66.02;99142.25;5062557;27;129870;-75
2022/05/17 06:08:27;;;;;;;2.38;1.08;;;8.00;1.00;;;8.66;66.06;99155.13;5061445;27;120473;-74
2022/05/17 06:10:58;;;;;;;6.00;1.27;;;7.60;1.00;;;8.25;67.31;99135.22;5047149;27;118634;-79
2022/05/17 06:13:27;;;;;;;2.88;1.17;;;7.60;1.00;;;8.57;67.04;99149.66;5046123;27;128780;-77
2022/05/17 06:15:56;;;;;;;4.63;1.60;;;7.80;1.00;;;8.83;65.31;99149.84;5061660;27;130160;-77
2022/05/17 06:18:24;;;;;;;2.97;1.20;;;8.10;1.00;;;8.94;66.22;99147.69;5061950;27;122427;-78
2022/05/17 06:20:55;;;;;;;3.75;1.15;;;8.10;1.00;;;9.25;64.54;99157.75;5045473;27;120485;-80
2022/05/17 06:23:26;;;;;;;2.70;1.27;;;8.20;1.00;;;9.39;63.73;99144.91;5062264;27;130625;-75
2022/05/17 06:25:55;;;;;;;2.92;1.60;;;8.50;1.00;;;10.30;61.64;99149.91;5063119;27;130174;-79
2022/05/17 06:28:23;;;;;;;4.85;1.70;;;8.70;1.00;;;9.34;62.86;99143.13;5030626;27;117608;-75
2022/05/17 06:30:51;;;;;;;2.65;0.95;;;8.30;1.00;;;10.18;61.92;99142.44;5062356;27;119860;-76
2022/05/17 06:33:21;;;;;;;4.60;1.30;;;8.70;1.00;;;10.12;60.74;99151.81;5045666;27;129935;-72
2022/05/17 06:35:50;;;;;;;4.65;1.00;;;8.10;1.00;;;9.99;60.15;99154.34;5041201;27;129381;-77
2022/05/17 06:38:19;;;;;;;6.75;1.45;;;7.90;1.00;;;9.70;61.63;99158.41;5040314;27;119900;-77
2022/05/17 06:40:48;;;;;;;5.88;1.08;;;7.90;1.00;;;10.24;59.63;99165.56;5040935;27;119337;-75
2022/05/17 06:43:18;;;;;;;2.80;1.13;;;8.30;1.00;;;9.85;58.68;99151.75;5038551;27;130406;-73
2022/05/17 06:45:46;;;;;;;3.00;1.30;;;7.80;1.00;;;9.69;58.75;99159.53;5039877;27;129861;-74
2022/05/17 06:48:14;;;;;;;3.10;1.17;;;7.90;1.00;;;9.64;59.70;99156.94;5040441;27;120707;-77
2022/05/17 06:50:43;;;;;;;2.63;1.15;;;8.10;1.00;;;10.13;58.75;99164.25;5042135;27;120277;-79
2022/05/17 06:53:12;;;;;;;4.47;1.00;;;8.50;1.00;;;9.52;59.55;99154.84;5041122;27;131018;-74
2022/05/17 06:55:42;;;;;;;3.00;1.27;;;8.40;1.00;;;9.37;60.70;99152.53;5061129;27;129430;-75
2022/05/17 06:58:12;;;;;;;4.13;1.42;;;8.50;1.00;;;9.84;58.88;99160.22;5061103;27;120333;-74
2022/05/17 07:00:40;;;;;;;3.35;1.20;;;8.50;1.00;;;10.27;56.36;99156.78;5050846;27;119944;-77
2022/05/17 07:03:09;;;;;;;3.15;1.20;;;8.50;99.90;;;10.35;56.17;99163.38;5039628;27;131245;-77
2022/05/17 07:05:38;;;;;;;5.75;1.20;;;8.80;99.90;;;9.53;59.68;99161.06;5043646;27;130568;-75
2022/05/17 07:08:07;;;;;;;3.05;1.27;;;8.70;1.00;;;10.08;56.10;99160.59;5039681;27;124553;-76
2022/05/17 07:13:24;;;;;;;2.43;1.07;;;9.20;99.90;;;10.64;53.69;99165.44;5039274;27;130495;-75
2022/05/17 07:15:53;;;;;;;5.40;1.95;;;8.70;99.90;;;10.97;54.63;99162.22;5038883;27;130178;-76
2022/05/17 07:18:24;;;;;;;4.32;1.17;;;9.30;99.90;;;11.42;53.02;99161.78;5040618;27;119987;-75
2022/05/17 07:20:54;;;;;;;3.05;1.10;;;9.50;99.90;;;10.82;53.62;99162.72;5039693;27;119541;-77
2022/05/17 07:23:24;;;;;;;3.78;1.40;;;9.40;99.90;;;11.33;53.61;99169.19;5038529;27;131034;-76
2022/05/17 07:25:54;;;;;;;2.78;1.27;;;9.60;99.90;;;10.78;53.61;99160.66;5039031;27;129770;-78
2022/05/17 07:28:24;;;;;;;4.82;1.70;;;9.20;99.90;;;11.19;54.30;99157.69;5039584;27;120269;-72
2022/05/17 07:30:53;;;;;;;3.67;1.10;;;9.80;99.90;;;11.00;54.71;99158.88;5076020;27;119519;-76
2022/05/17 07:33:22;;;;;;;9.23;1.98;;;9.70;99.90;;;10.93;56.43;99163.97;5037900;27;131823;-73
2022/05/17 07:35:50;;;;;;;5.20;1.42;;;9.70;99.90;;;10.96;55.54;99166.06;5052003;27;130281;-76
2022/05/17 07:38:19;;;;;;;4.25;1.20;;;8.60;1.00;;;10.74;56.49;99159.69;5059441;27;120153;-75
2022/05/17 07:40:49;;;;;;;3.67;1.52;;;8.70;1.00;;;11.01;56.76;99163.16;5059781;27;118825;-75
2022/05/17 07:43:19;;;;;;;3.72;1.30;;;9.10;1.00;;;11.13;54.87;99166.03;5044004;27;130053;-77
2022/05/17 07:45:49;;;;;;;3.20;1.30;;;9.20;99.90;;;11.02;55.69;99153.91;5059648;27;129208;-77
2022/05/17 07:48:21;;;;;;;8.35;1.60;;;9.20;99.90;;;10.70;57.62;99156.00;5059452;27;119998;-75
2022/05/17 07:50:50;;;;;;;3.85;1.20;;;8.70;1.00;;;10.75;57.42;99158.59;5072821;27;119527;-79
2022/05/17 07:53:22;;;;;;;2.28;1.17;;;8.70;1.00;;;10.78;57.29;99163.38;5064997;27;128788;-76
2022/05/17 07:55:51;;;;;;;2.53;1.20;;;9.00;1.00;;;10.87;56.66;99151.69;5079440;27;129837;-77
2022/05/17 07:58:20;;;;;;;6.53;2.10;;;9.00;1.00;;;11.18;56.38;99161.53;5060997;27;122197;-78
2022/05/17 08:00:50;;;;;;;3.72;1.40;;;9.30;1.00;;;11.28;56.19;99172.88;5080055;27;122328;-74
2022/05/17 08:03:21;;;;;;;3.28;1.60;;;9.20;1.00;;;11.35;56.11;99164.22;5079342;27;130249;-77
2022/05/17 08:05:51;;;;;;;3.22;1.50;;;9.40;1.00;;;11.57;55.32;99163.16;5079213;27;130010;-76
2022/05/17 08:08:20;;;;;;;5.90;1.55;;;9.50;99.90;;;11.97;53.75;99162.06;5080213;27;119832;-77
2022/05/17 08:10:51;;;;;;;3.65;1.45;;;9.70;99.90;;;11.66;53.84;99154.97;5079689;27;120023;-79
2022/05/17 08:13:22;;;;;;;5.95;1.60;;;9.40;99.90;;;11.09;55.46;99165.06;5079058;27;130431;-77
2022/05/17 08:15:53;;;;;;;3.58;1.25;;;9.10;1.00;;;11.30;55.81;99158.97;5060347;27;129751;-78
2022/05/17 08:18:22;;;;;;;4.85;1.48;;;9.40;1.00;;;11.12;56.34;99167.13;5079396;27;120950;-78
2022/05/17 08:20:51;;;;;;;2.92;1.10;;;9.30;1.00;;;11.30;55.16;99158.97;5073516;27;120269;-79
2022/05/17 08:23:20;;;;;;;3.92;1.70;;;9.70;99.90;;;11.69;55.70;99159.75;5057088;27;130266;-76
2022/05/17 08:28:35;;;;;;;3.72;1.45;;;9.30;1.00;;;11.80;54.83;99157.47;5046115;27;119049;-79
2022/05/17 08:31:04;;;;;;;4.15;1.27;;;9.40;1.00;;;11.65;54.93;99164.25;5050907;27;121228;-76
2022/05/17 08:33:35;;;;;;;3.63;1.63;;;9.70;99.90;;;11.52;55.95;99166.84;5078620;27;131014;-78
2022/05/17 08:36:07;;;;;;;7.65;1.73;;;9.30;1.00;;;12.09;55.46;99156.69;5084507;27;129611;-75
2022/05/17 08:38:38;;;;;;;6.25;1.90;;;9.80;1.00;;;12.17;54.09;99147.69;5064467;27;119891;-75
2022/05/17 08:41:20;;;;;;;6.47;1.90;;;9.60;1.00;;;12.05;54.44;99155.75;5083344;27;119636;-74
2022/05/17 08:43:53;;;;;;;7.38;1.77;;;9.40;1.00;;;11.68;56.14;99158.16;5063698;27;130319;-73
2022/05/17 08:46:46;;;;;;;4.22;1.83;;;9.50;1.00;;;11.25;56.74;99150.97;5050151;27;128747;-76
2022/05/17 08:49:22;;;;;;;6.10;2.00;;;9.20;1.00;;;11.82;56.00;99161.44;5081770;27;121761;-76
2022/05/17 08:51:56;;;;;;;3.00;1.30;;;9.30;1.00;;;11.36;55.10;99152.22;5082769;27;121814;-73
2022/05/17 08:54:30;;;;;;;6.00;1.35;;;9.30;99.90;;;11.99;53.33;99151.63;5080723;27;130244;-77
2022/05/17 08:57:07;;;;;;;6.20;2.13;;;10.00;99.90;;;12.11;53.85;99157.16;5082132;27;129672;-75
2022/05/17 08:59:38;;;;;;;4.35;2.13;;;10.30;99.90;;;11.75;54.56;99158.47;5082428;27;119377;-77
2022/05/17 09:02:15;;;;;;;3.53;1.35;;;10.10;99.90;;;11.75;54.82;99153.03;5082261;27;119968;-72
2022/05/17 09:05:10;;;;;;;5.50;1.83;;;10.10;99.90;;;11.80;54.28;99152.81;5066583;27;129063;-76
2022/05/17 09:07:48;;;;;;;4.38;1.95;;;9.80;99.90;;;12.22;53.40;99150.19;5082090;27;129800;-75
2022/05/17 09:10:28;;;;;;;5.05;1.70;;;10.80;99.90;;;12.13;52.09;99154.13;5082084;27;119335;-75
2022/05/17 09:13:05;;;;;;;4.38;1.17;;;10.90;99.90;;;12.05;51.59;99155.75;5067013;27;118122;-76
2022/05/17 09:15:34;;;;;;;2.40;0.93;;;10.80;99.90;;;12.30;49.45;99150.47;5080347;27;129859;-75
2022/05/17 09:18:10;;;;;;;2.17;1.08;;;10.90;99.90;;;13.09;47.33;99154.09;5081076;27;129926;-72
2022/05/17 09:20:41;;;;;;;3.05;1.23;;;11.10;99.90;;;13.81;46.84;99145.56;5081899;27;119421;-75
2022/05/17 09:23:10;;;;;;;4.55;2.63;;;11.70;99.90;;;13.77;46.58;99141.94;5082196;27;119250;-73
2022/05/17 09:26:08;;;;;;;3.13;1.35;;;11.80;99.90;;;13.64;47.89;99140.34;5081340;27;129731;-74
2022/05/17 09:28:51;;;;;;;3.17;1.25;;;11.30;99.90;;;13.49;47.31;99155.44;5081374;27;130143;-77
2022/05/17 09:31:29;;;;;;;7.18;1.30;;;10.90;99.90;;;13.54;46.28;99141.59;5081858;27;120439;-73
2022/05/17 09:34:04;;;;;;;2.72;1.10;;;10.70;99.90;;;13.20;47.23;99157.19;5066665;27;119171;-74
2022/05/17 09:36:43;;;;;;;6.10;3.63;;;10.90;99.90;;;11.89;48.86;99152.78;5066656;27;130963;-76
2022/05/17 09:39:12;;;;;;;3.38;1.77;;;10.70;99.90;;;12.62;48.71;99142.69;5060813;27;129759;-75
2022/05/17 09:41:42;;;;;;;3.70;1.30;;;11.30;99.90;;;13.52;45.24;99152.03;5058878;27;123182;-72
2022/05/17 09:44:13;;;;;;;3.33;1.40;;;11.90;99.90;;;14.18;42.89;99153.72;5060709;27;122711;-74
2022/05/17 09:46:47;;;;;;;5.22;1.80;;;11.90;99.90;;;13.54;45.47;99147.06;5060578;27;130601;-75
2022/05/17 09:52:34;;;;;;;3.50;1.60;;;11.40;99.90;;;12.22;47.87;99128.44;5061101;27;119949;-79
2022/05/17 09:55:20;;;;;;;5.75;1.17;;;11.10;99.90;;;13.34;44.94;99120.66;5060677;27;119720;-74
2022/05/17 09:58:11;;;;;;;2.20;1.00;;;11.60;99.90;;;13.20;43.67;99121.78;5044997;27;128616;-75
2022/05/17 10:00:51;;;;;;;2.30;1.02;;;10.90;99.90;;;13.66;43.74;99117.06;5039488;27;128760;-74
2022/05/17 10:03:34;;;;;;;2.30;1.00;;;11.70;99.90;;;13.29;44.59;99121.66;5061208;27;119900;-78
2022/05/17 10:06:07;;;;;;;3.00;0.90;;;11.80;99.90;;;13.23;42.96;99121.09;5060757;27;119659;-77
2022/05/17 10:08:44;;;;;;;3.30;1.00;;;11.20;99.90;;;12.74;44.13;99116.31;5059122;27;130270;-75
2022/05/17 10:11:21;;;;;;;2.78;1.05;;;10.60;99.90;;;12.56;45.48;99102.06;5060239;27;129561;-71
2022/05/17 10:14:07;;;;;;;2.20;1.10;;;10.90;99.90;;;12.72;45.91;99120.50;5045387;27;119366;-80
2022/05/17 10:16:41;;;;;;;2.55;1.20;;;10.90;99.90;;;12.94;45.78;99122.84;5059749;27;119009;-77
2022/05/17 10:19:32;;;;;;;2.60;1.10;;;11.20;99.90;;;13.49;43.46;99122.72;5041566;27;131013;-72
2022/05/17 10:22:11;;;;;;;2.72;1.27;;;11.40;99.90;;;13.93;41.35;99124.88;5044611;27;128775;-74
2022/05/17 10:24:48;;;;;;;2.47;1.13;;;11.70;99.90;;;13.38;42.80;99119.66;5060681;27;119652;-76
2022/05/17 10:27:22;;;;;;;2.05;0.85;;;11.80;99.90;;;13.35;43.04;99122.28;5060993;27;119878;-74
2022/05/17 10:29:54;;;;;;;2.05;0.80;;;11.80;99.90;;;12.80;43.92;99108.72;5060298;27;129945;-78
2022/05/17 10:32:31;;;;;;;1.88;0.80;;;11.60;99.90;;;13.20;43.60;99121.78;5059706;27;129744;-72
2022/05/17 10:35:03;;;;;;;1.38;0.80;;;11.90;99.90;;;13.31;41.92;99117.47;5066659;27;122193;-71
2022/05/17 10:37:44;;;;;;;2.35;0.98;;;11.80;99.90;;;14.00;39.29;99123.16;5081000;27;121932;-78
2022/05/17 10:40:17;;;;;;;3.08;1.10;;;11.50;99.90;;;13.97;40.41;99110.19;5065557;27;129515;-76
2022/05/17 10:42:46;;;;;;;2.63;1.13;;;11.70;99.90;;;14.50;37.79;99114.84;5079023;27;129983;-72
2022/05/17 10:45:20;;;;;;;7.63;3.50;;;12.20;99.90;;;13.64;39.94;99102.97;5080587;27;119981;-77
2022/05/17 10:47:58;;;;;;;7.00;3.30;;;11.70;99.90;;;13.01;42.08;99102.41;5065689;27;118648;-72
2022/05/17 10:50:35;;;;;;;3.08;0.88;;;11.60;99.90;;;12.99;41.06;99110.16;5080498;27;133023;-74
2022/05/17 10:53:30;;;;;;;1.63;1.00;;;11.20;99.90;;;13.20;40.79;99110.06;5073276;27;129589;-75
2022/05/17 10:56:13;;;;;;;2.45;1.10;;;11.20;99.90;;;12.80;40.55;99102.50;5060096;27;119725;-76
2022/05/17 10:58:55;;;;;;;2.55;1.40;;;11.50;99.90;;;13.02;40.22;99093.13;5059566;27;119021;-77